EXS47VA EGSS-LEMH
Flight info
| Callsign | EXS47VA |
|---|---|
| Flight time | 2h 8m |
| Altitude | 39000 |
| Route | NUGBO M183 SILVA Q41 COWLY DCT GWC UN859 SOPIL DCT BALAN DCT EVPOK DCT NARAK DCT GAI DCT LOMRA DCT ROCAN DCT GEANT DCT GIR DCT SALON DCT SULID N727 SARGO |
| Aircraft | B738/M-SDE2E3FGHIRWXY/LB1 |
Departure
| Time | 2026-04-15 11:30 |
|---|---|
| Airport | London Stansted Airport (EGSS) |
Arrival
| Time | 2026-04-15 13:38 |
|---|---|
| Airport | Menorca Airport (LEMH) |
| Time | Latitude | Longitude | Altitude | Speed | Heading |
|---|---|---|---|---|---|
| 2026-04-15 11:09 | 51.89038 | 0.25197 | 357 ft | 0 kts | 120° |
| 2026-04-15 11:21 | 51.89046 | 0.25173 | 361 ft | 4 kts | 119° |
| 2026-04-15 11:21 | 51.89060 | 0.25123 | 361 ft | 4 kts | 83° |
| 2026-04-15 11:21 | 51.89055 | 0.25098 | 357 ft | 4 kts | 50° |
| 2026-04-15 11:22 | 51.89039 | 0.25072 | 360 ft | 4 kts | 42° |
| 2026-04-15 11:22 | 51.89033 | 0.25064 | 361 ft | 0 kts | 42° |
| 2026-04-15 11:24 | 51.89035 | 0.25066 | 351 ft | 1 kts | 42° |
| 2026-04-15 11:24 | 51.89049 | 0.25087 | 358 ft | 5 kts | 42° |
| 2026-04-15 11:25 | 51.89081 | 0.25133 | 355 ft | 8 kts | 43° |
| 2026-04-15 11:25 | 51.89125 | 0.25199 | 351 ft | 8 kts | 43° |
| 2026-04-15 11:25 | 51.89159 | 0.25240 | 357 ft | 0 kts | 22° |
| 2026-04-15 11:25 | 51.89183 | 0.25243 | 354 ft | 6 kts | 353° |
| 2026-04-15 11:26 | 51.89216 | 0.25212 | 355 ft | 6 kts | 322° |
| 2026-04-15 11:26 | 51.89252 | 0.25192 | 358 ft | 6 kts | 2° |
| 2026-04-15 11:26 | 51.89288 | 0.25218 | 355 ft | 6 kts | 38° |
| 2026-04-15 11:26 | 51.89321 | 0.25258 | 351 ft | 6 kts | 24° |
| 2026-04-15 11:27 | 51.89362 | 0.25247 | 353 ft | 6 kts | 328° |
| 2026-04-15 11:27 | 51.89391 | 0.25195 | 354 ft | 6 kts | 315° |
| 2026-04-15 11:27 | 51.89420 | 0.25146 | 354 ft | 6 kts | 314° |
| 2026-04-15 11:27 | 51.89449 | 0.25096 | 357 ft | 6 kts | 314° |
| 2026-04-15 11:28 | 51.89484 | 0.25033 | 355 ft | 9 kts | 303° |
| 2026-04-15 11:28 | 51.89475 | 0.24944 | 355 ft | 9 kts | 229° |
| 2026-04-15 11:28 | 51.89452 | 0.24908 | 358 ft | 0 kts | 222° |
| 2026-04-15 11:29 | 51.89421 | 0.24867 | 350 ft | 28 kts | 215° |
| 2026-04-15 11:29 | 51.89100 | 0.24381 | 357 ft | 97 kts | 223° |
| 2026-04-15 11:29 | 51.88460 | 0.23400 | 370 ft | 151 kts | 220° |
| 2026-04-15 11:29 | 51.87665 | 0.22070 | 779 ft | 176 kts | 222° |
| 2026-04-15 11:30 | 51.86780 | 0.20573 | 1424 ft | 182 kts | 224° |
| 2026-04-15 11:30 | 51.85904 | 0.19149 | 2310 ft | 181 kts | 222° |
| 2026-04-15 11:30 | 51.84963 | 0.17666 | 2640 ft | 200 kts | 223° |
| 2026-04-15 11:30 | 51.83912 | 0.16102 | 3162 ft | 210 kts | 221° |
| 2026-04-15 11:31 | 51.83046 | 0.14085 | 3474 ft | 238 kts | 253° |
| 2026-04-15 11:31 | 51.83194 | 0.11374 | 3981 ft | 257 kts | 287° |
| 2026-04-15 11:31 | 51.84367 | 0.09061 | 3994 ft | 278 kts | 323° |
| 2026-04-15 11:31 | 51.86223 | 0.08036 | 4016 ft | 287 kts | 349° |
| 2026-04-15 11:32 | 51.88216 | 0.08040 | 4011 ft | 289 kts | 0° |
| 2026-04-15 11:32 | 51.90227 | 0.08025 | 4038 ft | 290 kts | 352° |
| 2026-04-15 11:32 | 51.92253 | 0.07711 | 4604 ft | 293 kts | 351° |
| 2026-04-15 11:32 | 51.94277 | 0.07342 | 5463 ft | 292 kts | 349° |
| 2026-04-15 11:33 | 51.96301 | 0.06856 | 6256 ft | 294 kts | 343° |
| 2026-04-15 11:33 | 51.98104 | 0.05363 | 6917 ft | 286 kts | 309° |
| 2026-04-15 11:33 | 51.99037 | 0.02656 | 7648 ft | 271 kts | 274° |
| 2026-04-15 11:33 | 51.98884 | -0.00242 | 8349 ft | 260 kts | 244° |
| 2026-04-15 11:34 | 51.98212 | -0.02976 | 9136 ft | 262 kts | 245° |
| 2026-04-15 11:34 | 51.97660 | -0.05807 | 9894 ft | 266 kts | 249° |
| 2026-04-15 11:34 | 51.97175 | -0.08755 | 10376 ft | 278 kts | 250° |
| 2026-04-15 11:34 | 51.96686 | -0.11941 | 10540 ft | 302 kts | 252° |
| 2026-04-15 11:35 | 51.96211 | -0.15371 | 10911 ft | 316 kts | 253° |
| 2026-04-15 11:35 | 51.95743 | -0.18899 | 11566 ft | 320 kts | 253° |
| 2026-04-15 11:35 | 51.95279 | -0.22441 | 12301 ft | 323 kts | 253° |
| 2026-04-15 11:35 | 51.94810 | -0.26030 | 12997 ft | 327 kts | 253° |
| 2026-04-15 11:36 | 51.94341 | -0.29612 | 13762 ft | 329 kts | 252° |
| 2026-04-15 11:36 | 51.93860 | -0.33269 | 14424 ft | 333 kts | 252° |
| 2026-04-15 11:36 | 51.93375 | -0.36956 | 15146 ft | 335 kts | 252° |
| 2026-04-15 11:36 | 51.92892 | -0.40615 | 15875 ft | 337 kts | 252° |
| 2026-04-15 11:37 | 51.92396 | -0.44358 | 16594 ft | 339 kts | 252° |
| 2026-04-15 11:37 | 51.91895 | -0.48121 | 17313 ft | 342 kts | 252° |
| 2026-04-15 11:37 | 51.91391 | -0.51901 | 18004 ft | 345 kts | 252° |
| 2026-04-15 11:37 | 51.90880 | -0.55718 | 18638 ft | 348 kts | 252° |
| 2026-04-15 11:38 | 51.90365 | -0.59565 | 19223 ft | 351 kts | 252° |
| 2026-04-15 11:38 | 51.89863 | -0.63463 | 19792 ft | 355 kts | 253° |
| 2026-04-15 11:38 | 51.89299 | -0.67361 | 20325 ft | 354 kts | 245° |
| 2026-04-15 11:38 | 51.88129 | -0.70795 | 20879 ft | 347 kts | 226° |
| 2026-04-15 11:39 | 51.86303 | -0.73216 | 21476 ft | 344 kts | 207° |
| 2026-04-15 11:39 | 51.84079 | -0.74647 | 22073 ft | 345 kts | 198° |
| 2026-04-15 11:39 | 51.81764 | -0.75757 | 22630 ft | 348 kts | 196° |
| 2026-04-15 11:39 | 51.79412 | -0.76804 | 23154 ft | 351 kts | 196° |
| 2026-04-15 11:40 | 51.77040 | -0.77830 | 23685 ft | 353 kts | 196° |
| 2026-04-15 11:40 | 51.74651 | -0.78854 | 24155 ft | 355 kts | 195° |
| 2026-04-15 11:40 | 51.72257 | -0.79873 | 24610 ft | 357 kts | 195° |
| 2026-04-15 11:40 | 51.69869 | -0.80884 | 25052 ft | 359 kts | 195° |
| 2026-04-15 11:41 | 51.67434 | -0.81875 | 25480 ft | 362 kts | 192° |
| 2026-04-15 11:41 | 51.64894 | -0.82115 | 25875 ft | 370 kts | 179° |
| 2026-04-15 11:41 | 51.62330 | -0.81463 | 26302 ft | 375 kts | 171° |
| 2026-04-15 11:41 | 51.59806 | -0.80226 | 26718 ft | 381 kts | 166° |
| 2026-04-15 11:42 | 51.57289 | -0.78819 | 27120 ft | 384 kts | 166° |
| 2026-04-15 11:42 | 51.54757 | -0.77391 | 27500 ft | 386 kts | 166° |
| 2026-04-15 11:42 | 51.52210 | -0.75960 | 27880 ft | 389 kts | 166° |
| 2026-04-15 11:42 | 51.49676 | -0.74543 | 28265 ft | 391 kts | 166° |
| 2026-04-15 11:43 | 51.47097 | -0.73110 | 28640 ft | 393 kts | 166° |
| 2026-04-15 11:43 | 51.44503 | -0.71677 | 29008 ft | 395 kts | 166° |
| 2026-04-15 11:43 | 51.41890 | -0.70238 | 29380 ft | 397 kts | 166° |
| 2026-04-15 11:43 | 51.39265 | -0.68797 | 29719 ft | 399 kts | 166° |
| 2026-04-15 11:44 | 51.36628 | -0.67352 | 30047 ft | 402 kts | 167° |
| 2026-04-15 11:44 | 51.33967 | -0.65897 | 30337 ft | 404 kts | 167° |
| 2026-04-15 11:44 | 51.31295 | -0.64438 | 30527 ft | 407 kts | 167° |
| 2026-04-15 11:44 | 51.28603 | -0.62970 | 30752 ft | 410 kts | 167° |
| 2026-04-15 11:45 | 51.25928 | -0.61512 | 31026 ft | 411 kts | 167° |
| 2026-04-15 11:45 | 51.23212 | -0.60033 | 31353 ft | 411 kts | 167° |
| 2026-04-15 11:45 | 51.20513 | -0.58563 | 31748 ft | 409 kts | 167° |
| 2026-04-15 11:45 | 51.17818 | -0.57097 | 32131 ft | 408 kts | 167° |
| 2026-04-15 11:46 | 51.15134 | -0.55641 | 32470 ft | 407 kts | 167° |
| 2026-04-15 11:46 | 51.12447 | -0.54185 | 32803 ft | 407 kts | 167° |
| 2026-04-15 11:46 | 51.09765 | -0.52735 | 33174 ft | 406 kts | 167° |
| 2026-04-15 11:46 | 51.07084 | -0.51286 | 33529 ft | 405 kts | 167° |
| 2026-04-15 11:47 | 51.04413 | -0.49845 | 33847 ft | 405 kts | 167° |
| 2026-04-15 11:47 | 51.01738 | -0.48404 | 34135 ft | 405 kts | 167° |
| 2026-04-15 11:47 | 50.99071 | -0.46969 | 34399 ft | 404 kts | 167° |
| 2026-04-15 11:47 | 50.96438 | -0.45553 | 34641 ft | 405 kts | 167° |
| 2026-04-15 11:48 | 50.93769 | -0.44121 | 34876 ft | 405 kts | 167° |
| 2026-04-15 11:48 | 50.91097 | -0.42688 | 35128 ft | 405 kts | 167° |
| 2026-04-15 11:48 | 50.88430 | -0.41259 | 35373 ft | 404 kts | 167° |
| 2026-04-15 11:48 | 50.85748 | -0.39825 | 35539 ft | 406 kts | 167° |
| 2026-04-15 11:49 | 50.83067 | -0.38394 | 35700 ft | 408 kts | 167° |
| 2026-04-15 11:49 | 50.80374 | -0.36957 | 35950 ft | 407 kts | 167° |
| 2026-04-15 11:49 | 50.77682 | -0.35521 | 36225 ft | 406 kts | 167° |
| 2026-04-15 11:49 | 50.75033 | -0.34109 | 36434 ft | 406 kts | 167° |
| 2026-04-15 11:50 | 50.72342 | -0.32679 | 36619 ft | 407 kts | 167° |
| 2026-04-15 11:50 | 50.69650 | -0.31249 | 36848 ft | 407 kts | 167° |
| 2026-04-15 11:50 | 50.66963 | -0.29823 | 37068 ft | 406 kts | 167° |
| 2026-04-15 11:50 | 50.64283 | -0.28403 | 37256 ft | 407 kts | 167° |
| 2026-04-15 11:51 | 50.61587 | -0.26978 | 37405 ft | 408 kts | 167° |
| 2026-04-15 11:51 | 50.58883 | -0.25549 | 37587 ft | 409 kts | 167° |
| 2026-04-15 11:51 | 50.56220 | -0.24142 | 37816 ft | 408 kts | 167° |
| 2026-04-15 11:51 | 50.53527 | -0.22722 | 38027 ft | 408 kts | 167° |
| 2026-04-15 11:52 | 50.50832 | -0.21302 | 38181 ft | 408 kts | 167° |
| 2026-04-15 11:52 | 50.48132 | -0.19860 | 38302 ft | 410 kts | 166° |
| 2026-04-15 11:52 | 50.45423 | -0.18419 | 38447 ft | 410 kts | 167° |
| 2026-04-15 11:52 | 50.42716 | -0.17007 | 38640 ft | 410 kts | 167° |
| 2026-04-15 11:53 | 50.40010 | -0.15601 | 38793 ft | 410 kts | 167° |
| 2026-04-15 11:53 | 50.37285 | -0.14185 | 38879 ft | 411 kts | 167° |
| 2026-04-15 11:53 | 50.34597 | -0.12786 | 38990 ft | 411 kts | 167° |
| 2026-04-15 11:53 | 50.31877 | -0.11368 | 39068 ft | 413 kts | 167° |
| 2026-04-15 11:54 | 50.26407 | -0.08518 | 39085 ft | 414 kts | 167° |
| 2026-04-15 11:54 | 50.20942 | -0.05672 | 39092 ft | 412 kts | 167° |
| 2026-04-15 11:55 | 50.15532 | -0.02864 | 39087 ft | 411 kts | 167° |
| 2026-04-15 11:55 | 50.10099 | -0.00060 | 39070 ft | 409 kts | 168° |
| 2026-04-15 11:56 | 50.05560 | 0.01849 | 39097 ft | 405 kts | 171° |
| 2026-04-15 11:56 | 49.99191 | 0.04287 | 39103 ft | 405 kts | 171° |
| 2026-04-15 11:57 | 49.91909 | 0.07104 | 39094 ft | 405 kts | 171° |
| 2026-04-15 11:58 | 49.86422 | 0.09247 | 39108 ft | 406 kts | 171° |
| 2026-04-15 11:58 | 49.80930 | 0.11389 | 39114 ft | 407 kts | 171° |
| 2026-04-15 11:59 | 49.75454 | 0.13521 | 39124 ft | 408 kts | 171° |
| 2026-04-15 11:59 | 49.69913 | 0.15673 | 39124 ft | 410 kts | 171° |
| 2026-04-15 12:00 | 49.64390 | 0.17857 | 39130 ft | 412 kts | 171° |
| 2026-04-15 12:00 | 49.58822 | 0.20126 | 39131 ft | 413 kts | 171° |
| 2026-04-15 12:01 | 49.53294 | 0.22373 | 39137 ft | 414 kts | 171° |
| 2026-04-15 12:01 | 49.47713 | 0.24627 | 39123 ft | 414 kts | 171° |
| 2026-04-15 12:02 | 49.42128 | 0.26875 | 39129 ft | 414 kts | 171° |
| 2026-04-15 12:02 | 49.36581 | 0.29103 | 39128 ft | 414 kts | 171° |
| 2026-04-15 12:03 | 49.30989 | 0.31343 | 39134 ft | 414 kts | 171° |
| 2026-04-15 12:03 | 49.25404 | 0.33665 | 39123 ft | 415 kts | 170° |
| 2026-04-15 12:04 | 49.19870 | 0.36009 | 39129 ft | 414 kts | 170° |
| 2026-04-15 12:04 | 49.14310 | 0.38352 | 39139 ft | 413 kts | 170° |
| 2026-04-15 12:05 | 49.08802 | 0.40660 | 39141 ft | 413 kts | 170° |
| 2026-04-15 12:05 | 49.03255 | 0.42975 | 39137 ft | 412 kts | 171° |
| 2026-04-15 12:06 | 48.97715 | 0.45284 | 39133 ft | 411 kts | 170° |
| 2026-04-15 12:06 | 48.92193 | 0.47578 | 39144 ft | 411 kts | 170° |
| 2026-04-15 12:07 | 48.86693 | 0.49858 | 39146 ft | 411 kts | 170° |
| 2026-04-15 12:07 | 48.81161 | 0.52147 | 39155 ft | 412 kts | 170° |
| 2026-04-15 12:08 | 48.75605 | 0.54398 | 39158 ft | 413 kts | 171° |
| 2026-04-15 12:08 | 48.70029 | 0.56564 | 39159 ft | 414 kts | 171° |
| 2026-04-15 12:09 | 48.64430 | 0.58738 | 39148 ft | 415 kts | 171° |
| 2026-04-15 12:09 | 48.58851 | 0.60912 | 39163 ft | 416 kts | 171° |
| 2026-04-15 12:10 | 48.53234 | 0.63097 | 39167 ft | 417 kts | 171° |
| 2026-04-15 12:10 | 48.47606 | 0.65340 | 39170 ft | 418 kts | 170° |
| 2026-04-15 12:11 | 48.41969 | 0.67646 | 39149 ft | 419 kts | 171° |
| 2026-04-15 12:11 | 48.36377 | 0.69923 | 39167 ft | 419 kts | 171° |
| 2026-04-15 12:12 | 48.30739 | 0.72204 | 39174 ft | 419 kts | 171° |
| 2026-04-15 12:12 | 48.25100 | 0.74479 | 39174 ft | 419 kts | 171° |
| 2026-04-15 12:13 | 48.19482 | 0.76704 | 39158 ft | 419 kts | 171° |
| 2026-04-15 12:13 | 48.13834 | 0.78920 | 39169 ft | 419 kts | 171° |
| 2026-04-15 12:14 | 48.08191 | 0.81133 | 39172 ft | 419 kts | 171° |
| 2026-04-15 12:14 | 48.02538 | 0.83349 | 39171 ft | 419 kts | 171° |
| 2026-04-15 12:15 | 47.96898 | 0.85556 | 39151 ft | 419 kts | 171° |
| 2026-04-15 12:15 | 47.91254 | 0.87759 | 39174 ft | 419 kts | 171° |
| 2026-04-15 12:16 | 47.85603 | 0.89959 | 39184 ft | 419 kts | 171° |
| 2026-04-15 12:16 | 47.79974 | 0.92143 | 39188 ft | 420 kts | 171° |
| 2026-04-15 12:17 | 47.74289 | 0.94340 | 39179 ft | 422 kts | 171° |
| 2026-04-15 12:17 | 47.68599 | 0.96536 | 39197 ft | 423 kts | 171° |
| 2026-04-15 12:18 | 47.62877 | 0.98740 | 39201 ft | 424 kts | 171° |
| 2026-04-15 12:18 | 47.57166 | 1.00935 | 39177 ft | 426 kts | 171° |
| 2026-04-15 12:19 | 47.51414 | 1.03142 | 39204 ft | 427 kts | 171° |
| 2026-04-15 12:19 | 47.45643 | 1.05351 | 39203 ft | 428 kts | 171° |
| 2026-04-15 12:20 | 47.39862 | 1.06471 | 39205 ft | 417 kts | 186° |
| 2026-04-15 12:20 | 47.34040 | 1.06260 | 39204 ft | 418 kts | 186° |
| 2026-04-15 12:21 | 47.28199 | 1.06077 | 39213 ft | 419 kts | 186° |
| 2026-04-15 12:21 | 47.22389 | 1.05937 | 39215 ft | 420 kts | 186° |
| 2026-04-15 12:22 | 47.16523 | 1.05808 | 39194 ft | 421 kts | 186° |
| 2026-04-15 12:22 | 47.10620 | 1.05678 | 39213 ft | 421 kts | 186° |
| 2026-04-15 12:23 | 47.04793 | 1.05549 | 39223 ft | 422 kts | 186° |
| 2026-04-15 12:23 | 46.98914 | 1.05375 | 39217 ft | 422 kts | 187° |
| 2026-04-15 12:24 | 46.93037 | 1.05106 | 39206 ft | 421 kts | 187° |
| 2026-04-15 12:24 | 46.87163 | 1.04835 | 39213 ft | 421 kts | 187° |
| 2026-04-15 12:25 | 46.81299 | 1.04576 | 39220 ft | 421 kts | 187° |
| 2026-04-15 12:25 | 46.75461 | 1.04324 | 39218 ft | 422 kts | 187° |
| 2026-04-15 12:26 | 46.69566 | 1.04071 | 39221 ft | 422 kts | 187° |
| 2026-04-15 12:26 | 46.63724 | 1.03820 | 39224 ft | 422 kts | 187° |
| 2026-04-15 12:27 | 46.57815 | 1.03566 | 39219 ft | 422 kts | 187° |
| 2026-04-15 12:27 | 46.51927 | 1.03423 | 39215 ft | 425 kts | 181° |
| 2026-04-15 12:28 | 46.46044 | 1.05004 | 39235 ft | 432 kts | 172° |
| 2026-04-15 12:28 | 46.40180 | 1.07051 | 39230 ft | 433 kts | 172° |
| 2026-04-15 12:29 | 46.34316 | 1.09064 | 39209 ft | 433 kts | 173° |
| 2026-04-15 12:29 | 46.28471 | 1.11027 | 39225 ft | 434 kts | 173° |
| 2026-04-15 12:30 | 46.22575 | 1.12986 | 39234 ft | 435 kts | 173° |
| 2026-04-15 12:30 | 46.17621 | 1.14628 | 39233 ft | 436 kts | 173° |
| 2026-04-15 12:31 | 46.11715 | 1.16582 | 39229 ft | 437 kts | 173° |
| 2026-04-15 12:31 | 46.05754 | 1.18550 | 39241 ft | 439 kts | 173° |
| 2026-04-15 12:32 | 45.99826 | 1.20505 | 39235 ft | 440 kts | 172° |
| 2026-04-15 12:32 | 45.93831 | 1.22475 | 39227 ft | 442 kts | 172° |
| 2026-04-15 12:33 | 45.87822 | 1.24446 | 39242 ft | 443 kts | 172° |
| 2026-04-15 12:33 | 45.81818 | 1.26412 | 39237 ft | 445 kts | 172° |
| 2026-04-15 12:34 | 45.75761 | 1.28390 | 39233 ft | 447 kts | 172° |
| 2026-04-15 12:34 | 45.69669 | 1.30376 | 39212 ft | 448 kts | 172° |
| 2026-04-15 12:35 | 45.63599 | 1.32351 | 39232 ft | 449 kts | 172° |
| 2026-04-15 12:35 | 45.57443 | 1.34349 | 39216 ft | 450 kts | 172° |
| 2026-04-15 12:36 | 45.51371 | 1.36316 | 39214 ft | 450 kts | 172° |
| 2026-04-15 12:36 | 45.45271 | 1.38287 | 39213 ft | 449 kts | 172° |
| 2026-04-15 12:37 | 45.39167 | 1.40253 | 39215 ft | 449 kts | 172° |
| 2026-04-15 12:37 | 45.33057 | 1.42219 | 39204 ft | 448 kts | 172° |
| 2026-04-15 12:38 | 45.26960 | 1.44177 | 39211 ft | 448 kts | 172° |
| 2026-04-15 12:38 | 45.20911 | 1.46115 | 39212 ft | 447 kts | 172° |
| 2026-04-15 12:39 | 45.14812 | 1.48064 | 39202 ft | 448 kts | 172° |
| 2026-04-15 12:39 | 45.08729 | 1.50004 | 39216 ft | 447 kts | 172° |
| 2026-04-15 12:40 | 45.02663 | 1.51935 | 39210 ft | 448 kts | 172° |
| 2026-04-15 12:40 | 44.96517 | 1.53888 | 39185 ft | 449 kts | 172° |
| 2026-04-15 12:41 | 44.90398 | 1.55826 | 39211 ft | 451 kts | 172° |
| 2026-04-15 12:41 | 44.84259 | 1.57766 | 39213 ft | 453 kts | 172° |
| 2026-04-15 12:42 | 44.78084 | 1.59714 | 39221 ft | 455 kts | 171° |
| 2026-04-15 12:42 | 44.71912 | 1.61657 | 39214 ft | 458 kts | 171° |
| 2026-04-15 12:43 | 44.65687 | 1.63613 | 39214 ft | 459 kts | 171° |
| 2026-04-15 12:43 | 44.59432 | 1.65574 | 39199 ft | 460 kts | 171° |
| 2026-04-15 12:44 | 44.53170 | 1.67534 | 39209 ft | 460 kts | 171° |
| 2026-04-15 12:44 | 44.46943 | 1.69477 | 39205 ft | 460 kts | 171° |
| 2026-04-15 12:45 | 44.40684 | 1.71427 | 39195 ft | 459 kts | 171° |
| 2026-04-15 12:45 | 44.34438 | 1.73368 | 39208 ft | 459 kts | 171° |
| 2026-04-15 12:46 | 44.28187 | 1.75258 | 39208 ft | 457 kts | 173° |
| 2026-04-15 12:46 | 44.21903 | 1.76679 | 39209 ft | 455 kts | 175° |
| 2026-04-15 12:47 | 44.15617 | 1.77984 | 39214 ft | 456 kts | 175° |
| 2026-04-15 12:47 | 44.09381 | 1.79330 | 39221 ft | 455 kts | 175° |
| 2026-04-15 12:48 | 44.03108 | 1.80710 | 39222 ft | 456 kts | 175° |
| 2026-04-15 12:48 | 43.96829 | 1.82087 | 39219 ft | 456 kts | 175° |
| 2026-04-15 12:49 | 43.90531 | 1.83082 | 39221 ft | 454 kts | 180° |
| 2026-04-15 12:49 | 43.84192 | 1.83601 | 39235 ft | 455 kts | 181° |
| 2026-04-15 12:50 | 43.77882 | 1.84122 | 39220 ft | 457 kts | 180° |
| 2026-04-15 12:50 | 43.71523 | 1.84715 | 39238 ft | 458 kts | 180° |
| 2026-04-15 12:51 | 43.65136 | 1.85336 | 39231 ft | 460 kts | 180° |
| 2026-04-15 12:51 | 43.58739 | 1.85958 | 39222 ft | 461 kts | 180° |
| 2026-04-15 12:52 | 43.52329 | 1.86577 | 39230 ft | 462 kts | 180° |
| 2026-04-15 12:52 | 43.45897 | 1.87196 | 39224 ft | 463 kts | 180° |
| 2026-04-15 12:53 | 43.39500 | 1.87811 | 39204 ft | 463 kts | 180° |
| 2026-04-15 12:53 | 43.33060 | 1.88428 | 39212 ft | 464 kts | 180° |
| 2026-04-15 12:54 | 43.26609 | 1.89048 | 39211 ft | 464 kts | 180° |
| 2026-04-15 12:54 | 43.20155 | 1.89668 | 39200 ft | 465 kts | 179° |
| 2026-04-15 12:55 | 43.13696 | 1.90288 | 39203 ft | 464 kts | 179° |
| 2026-04-15 12:55 | 43.07246 | 1.90906 | 39213 ft | 464 kts | 179° |
| 2026-04-15 12:56 | 43.00830 | 1.91519 | 39219 ft | 465 kts | 179° |
| 2026-04-15 12:56 | 42.94343 | 1.92136 | 39209 ft | 466 kts | 179° |
| 2026-04-15 12:57 | 42.87887 | 1.92750 | 39214 ft | 468 kts | 179° |
| 2026-04-15 12:57 | 42.81334 | 1.93372 | 39208 ft | 470 kts | 179° |
| 2026-04-15 12:58 | 42.74795 | 1.93991 | 39200 ft | 471 kts | 179° |
| 2026-04-15 12:58 | 42.68338 | 1.95310 | 39202 ft | 476 kts | 162° |
| 2026-04-15 12:58 | 42.65300 | 1.97154 | 39200 ft | 478 kts | 150° |
| 2026-04-15 12:59 | 42.60009 | 2.02670 | 39199 ft | 479 kts | 139° |
| 2026-04-15 12:59 | 42.54932 | 2.08552 | 39179 ft | 480 kts | 140° |
| 2026-04-15 13:00 | 42.50661 | 2.13385 | 39173 ft | 481 kts | 140° |
| 2026-04-15 13:00 | 42.45487 | 2.19159 | 39177 ft | 481 kts | 140° |
| 2026-04-15 13:01 | 42.40337 | 2.24902 | 39161 ft | 482 kts | 140° |
| 2026-04-15 13:01 | 42.35165 | 2.30675 | 39160 ft | 481 kts | 140° |
| 2026-04-15 13:02 | 42.32580 | 2.33559 | 38996 ft | 483 kts | 140° |
| 2026-04-15 13:02 | 42.29985 | 2.36451 | 38742 ft | 483 kts | 140° |
| 2026-04-15 13:02 | 42.27377 | 2.39353 | 38458 ft | 479 kts | 140° |
| 2026-04-15 13:02 | 42.24823 | 2.42192 | 38179 ft | 478 kts | 140° |
| 2026-04-15 13:03 | 42.22247 | 2.45051 | 37903 ft | 478 kts | 140° |
| 2026-04-15 13:03 | 42.19669 | 2.47910 | 37641 ft | 477 kts | 140° |
| 2026-04-15 13:03 | 42.17103 | 2.50752 | 37376 ft | 477 kts | 140° |
| 2026-04-15 13:03 | 42.14535 | 2.53593 | 37111 ft | 477 kts | 140° |
| 2026-04-15 13:04 | 42.11966 | 2.56433 | 36857 ft | 476 kts | 140° |
| 2026-04-15 13:04 | 42.09391 | 2.59277 | 36599 ft | 476 kts | 140° |
| 2026-04-15 13:04 | 42.06838 | 2.62092 | 36341 ft | 475 kts | 140° |
| 2026-04-15 13:04 | 42.04281 | 2.64909 | 36093 ft | 473 kts | 140° |
| 2026-04-15 13:05 | 42.01723 | 2.67726 | 35859 ft | 471 kts | 139° |
| 2026-04-15 13:05 | 41.99223 | 2.70475 | 35619 ft | 469 kts | 139° |
| 2026-04-15 13:05 | 41.96701 | 2.73247 | 35364 ft | 467 kts | 139° |
| 2026-04-15 13:05 | 41.94187 | 2.76005 | 35116 ft | 465 kts | 139° |
| 2026-04-15 13:06 | 41.91647 | 2.78700 | 34875 ft | 464 kts | 142° |
| 2026-04-15 13:06 | 41.89041 | 2.81257 | 34640 ft | 462 kts | 143° |
| 2026-04-15 13:06 | 41.86411 | 2.83743 | 34402 ft | 461 kts | 144° |
| 2026-04-15 13:06 | 41.83780 | 2.86204 | 34165 ft | 459 kts | 144° |
| 2026-04-15 13:07 | 41.81161 | 2.88662 | 33906 ft | 458 kts | 143° |
| 2026-04-15 13:07 | 41.78564 | 2.91115 | 33639 ft | 456 kts | 143° |
| 2026-04-15 13:07 | 41.75974 | 2.93572 | 33375 ft | 455 kts | 143° |
| 2026-04-15 13:07 | 41.73395 | 2.96026 | 33112 ft | 453 kts | 143° |
| 2026-04-15 13:08 | 41.68432 | 3.00973 | 32805 ft | 450 kts | 143° |
| 2026-04-15 13:08 | 41.65866 | 3.03373 | 32553 ft | 449 kts | 144° |
| 2026-04-15 13:08 | 41.63299 | 3.05736 | 32331 ft | 445 kts | 142° |
| 2026-04-15 13:09 | 41.60751 | 3.08113 | 32074 ft | 444 kts | 142° |
| 2026-04-15 13:09 | 41.58222 | 3.10482 | 31829 ft | 443 kts | 142° |
| 2026-04-15 13:09 | 41.55696 | 3.12852 | 31593 ft | 443 kts | 142° |
| 2026-04-15 13:09 | 41.53169 | 3.15211 | 31344 ft | 442 kts | 142° |
| 2026-04-15 13:10 | 41.50662 | 3.17580 | 31103 ft | 441 kts | 141° |
| 2026-04-15 13:10 | 41.48133 | 3.19913 | 30859 ft | 441 kts | 143° |
| 2026-04-15 13:10 | 41.45576 | 3.22101 | 30623 ft | 439 kts | 145° |
| 2026-04-15 13:10 | 41.42976 | 3.24217 | 30344 ft | 435 kts | 146° |
| 2026-04-15 13:11 | 41.40374 | 3.26272 | 29957 ft | 433 kts | 147° |
| 2026-04-15 13:11 | 41.37797 | 3.28309 | 29575 ft | 429 kts | 146° |
| 2026-04-15 13:11 | 41.35245 | 3.30362 | 29192 ft | 426 kts | 146° |
| 2026-04-15 13:11 | 41.32720 | 3.32417 | 28817 ft | 422 kts | 146° |
| 2026-04-15 13:12 | 41.30250 | 3.34436 | 28454 ft | 419 kts | 145° |
| 2026-04-15 13:12 | 41.27769 | 3.36465 | 28089 ft | 417 kts | 145° |
| 2026-04-15 13:12 | 41.25303 | 3.38479 | 27726 ft | 414 kts | 144° |
| 2026-04-15 13:12 | 41.22851 | 3.40488 | 27366 ft | 411 kts | 145° |
| 2026-04-15 13:13 | 41.20414 | 3.42465 | 27006 ft | 409 kts | 145° |
| 2026-04-15 13:13 | 41.18027 | 3.44399 | 26658 ft | 406 kts | 145° |
| 2026-04-15 13:13 | 41.15624 | 3.46361 | 26371 ft | 402 kts | 145° |
| 2026-04-15 13:13 | 41.13247 | 3.48310 | 26022 ft | 400 kts | 145° |
| 2026-04-15 13:14 | 41.10886 | 3.50247 | 25679 ft | 398 kts | 145° |
| 2026-04-15 13:14 | 41.08533 | 3.52172 | 25331 ft | 396 kts | 145° |
| 2026-04-15 13:14 | 41.06189 | 3.54086 | 24974 ft | 394 kts | 144° |
| 2026-04-15 13:14 | 41.03849 | 3.55988 | 24631 ft | 393 kts | 144° |
| 2026-04-15 13:15 | 41.01549 | 3.57852 | 24289 ft | 392 kts | 144° |
| 2026-04-15 13:15 | 40.99227 | 3.59752 | 23931 ft | 391 kts | 144° |
| 2026-04-15 13:15 | 40.96907 | 3.61636 | 23534 ft | 390 kts | 145° |
| 2026-04-15 13:15 | 40.94579 | 3.63495 | 23147 ft | 388 kts | 145° |
| 2026-04-15 13:16 | 40.92274 | 3.65338 | 22778 ft | 385 kts | 145° |
| 2026-04-15 13:16 | 40.89992 | 3.67171 | 22424 ft | 383 kts | 145° |
| 2026-04-15 13:16 | 40.87717 | 3.69002 | 22071 ft | 380 kts | 145° |
| 2026-04-15 13:16 | 40.85492 | 3.70795 | 21731 ft | 377 kts | 145° |
| 2026-04-15 13:17 | 40.83248 | 3.72602 | 21382 ft | 375 kts | 144° |
| 2026-04-15 13:17 | 40.81027 | 3.74395 | 21042 ft | 373 kts | 144° |
| 2026-04-15 13:17 | 40.78813 | 3.76178 | 20701 ft | 371 kts | 145° |
| 2026-04-15 13:17 | 40.76611 | 3.77943 | 20352 ft | 369 kts | 145° |
| 2026-04-15 13:18 | 40.74422 | 3.79696 | 20027 ft | 367 kts | 145° |
| 2026-04-15 13:18 | 40.72245 | 3.81440 | 19711 ft | 365 kts | 144° |
| 2026-04-15 13:18 | 40.70093 | 3.83162 | 19353 ft | 364 kts | 144° |
| 2026-04-15 13:18 | 40.67927 | 3.84896 | 19022 ft | 363 kts | 144° |
| 2026-04-15 13:19 | 40.65772 | 3.86619 | 18676 ft | 362 kts | 144° |
| 2026-04-15 13:19 | 40.63622 | 3.88341 | 18325 ft | 360 kts | 144° |
| 2026-04-15 13:19 | 40.61489 | 3.90053 | 17954 ft | 358 kts | 144° |
| 2026-04-15 13:19 | 40.59374 | 3.91739 | 17588 ft | 348 kts | 145° |
| 2026-04-15 13:20 | 40.57329 | 3.93361 | 17257 ft | 338 kts | 145° |
| 2026-04-15 13:20 | 40.55366 | 3.94922 | 16961 ft | 329 kts | 145° |
| 2026-04-15 13:20 | 40.53431 | 3.96461 | 16659 ft | 320 kts | 145° |
| 2026-04-15 13:20 | 40.51545 | 3.97961 | 16366 ft | 312 kts | 145° |
| 2026-04-15 13:21 | 40.49668 | 3.99363 | 16078 ft | 310 kts | 154° |
| 2026-04-15 13:21 | 40.47611 | 4.00259 | 15852 ft | 315 kts | 162° |
| 2026-04-15 13:21 | 40.45439 | 4.01003 | 15603 ft | 328 kts | 164° |
| 2026-04-15 13:21 | 40.43170 | 4.01750 | 15311 ft | 333 kts | 164° |
| 2026-04-15 13:22 | 40.40929 | 4.02494 | 15008 ft | 331 kts | 164° |
| 2026-04-15 13:22 | 40.38735 | 4.03238 | 14724 ft | 327 kts | 163° |
| 2026-04-15 13:22 | 40.36546 | 4.03993 | 14437 ft | 324 kts | 163° |
| 2026-04-15 13:22 | 40.34380 | 4.04749 | 14164 ft | 321 kts | 163° |
| 2026-04-15 13:23 | 40.32231 | 4.05504 | 13875 ft | 318 kts | 163° |
| 2026-04-15 13:23 | 40.30115 | 4.06262 | 13559 ft | 314 kts | 161° |
| 2026-04-15 13:23 | 40.28023 | 4.07052 | 13310 ft | 311 kts | 163° |
| 2026-04-15 13:23 | 40.25930 | 4.07790 | 13029 ft | 313 kts | 164° |
| 2026-04-15 13:24 | 40.23818 | 4.08510 | 12760 ft | 314 kts | 164° |
| 2026-04-15 13:24 | 40.21694 | 4.09241 | 12489 ft | 315 kts | 164° |
| 2026-04-15 13:24 | 40.19569 | 4.09980 | 12226 ft | 315 kts | 164° |
| 2026-04-15 13:24 | 40.17450 | 4.10724 | 11937 ft | 314 kts | 164° |
| 2026-04-15 13:25 | 40.15339 | 4.11465 | 11660 ft | 313 kts | 163° |
| 2026-04-15 13:25 | 40.13237 | 4.12205 | 11390 ft | 311 kts | 164° |
| 2026-04-15 13:25 | 40.11153 | 4.12936 | 11131 ft | 308 kts | 164° |
| 2026-04-15 13:25 | 40.09085 | 4.13457 | 10842 ft | 307 kts | 182° |
| 2026-04-15 13:26 | 40.07079 | 4.12669 | 10600 ft | 300 kts | 217° |
| 2026-04-15 13:26 | 40.05762 | 4.10658 | 10372 ft | 288 kts | 252° |
| 2026-04-15 13:26 | 40.05308 | 4.08186 | 10335 ft | 282 kts | 258° |
| 2026-04-15 13:26 | 40.04509 | 4.05805 | 10127 ft | 288 kts | 240° |
| 2026-04-15 13:27 | 40.03283 | 4.03735 | 9860 ft | 289 kts | 230° |
| 2026-04-15 13:27 | 40.01874 | 4.01911 | 9602 ft | 288 kts | 225° |
| 2026-04-15 13:27 | 40.00369 | 4.00184 | 9320 ft | 287 kts | 221° |
| 2026-04-15 13:27 | 39.98791 | 3.98601 | 9099 ft | 285 kts | 217° |
| 2026-04-15 13:28 | 39.97121 | 3.97202 | 8836 ft | 285 kts | 211° |
| 2026-04-15 13:28 | 39.95357 | 3.96008 | 8572 ft | 285 kts | 206° |
| 2026-04-15 13:28 | 39.93526 | 3.95046 | 8334 ft | 283 kts | 200° |
| 2026-04-15 13:28 | 39.91637 | 3.94311 | 8084 ft | 284 kts | 195° |
| 2026-04-15 13:29 | 39.89689 | 3.93767 | 7841 ft | 289 kts | 191° |
| 2026-04-15 13:29 | 39.87683 | 3.93393 | 7581 ft | 291 kts | 186° |
| 2026-04-15 13:29 | 39.85664 | 3.93284 | 7323 ft | 289 kts | 179° |
| 2026-04-15 13:29 | 39.83658 | 3.93477 | 7064 ft | 287 kts | 172° |
| 2026-04-15 13:30 | 39.81697 | 3.93938 | 6810 ft | 285 kts | 167° |
| 2026-04-15 13:30 | 39.79809 | 3.94619 | 6456 ft | 286 kts | 161° |
| 2026-04-15 13:30 | 39.77935 | 3.95530 | 6136 ft | 286 kts | 156° |
| 2026-04-15 13:30 | 39.76143 | 3.96641 | 5862 ft | 284 kts | 151° |
| 2026-04-15 13:31 | 39.74450 | 3.97946 | 5600 ft | 282 kts | 146° |
| 2026-04-15 13:31 | 39.72868 | 3.99434 | 5347 ft | 279 kts | 141° |
| 2026-04-15 13:31 | 39.71411 | 4.01083 | 5092 ft | 277 kts | 136° |
| 2026-04-15 13:31 | 39.70081 | 4.02883 | 4848 ft | 274 kts | 131° |
| 2026-04-15 13:32 | 39.68892 | 4.04800 | 4615 ft | 271 kts | 126° |
| 2026-04-15 13:32 | 39.68183 | 4.06129 | 4444 ft | 270 kts | 122° |
| 2026-04-15 13:32 | 39.67227 | 4.08227 | 4204 ft | 268 kts | 117° |
| 2026-04-15 13:32 | 39.66418 | 4.10407 | 3964 ft | 266 kts | 112° |
| 2026-04-15 13:33 | 39.65761 | 4.12643 | 3726 ft | 264 kts | 107° |
| 2026-04-15 13:33 | 39.65307 | 4.14926 | 3483 ft | 260 kts | 92° |
| 2026-04-15 13:33 | 39.65672 | 4.17136 | 3243 ft | 248 kts | 53° |
| 2026-04-15 13:33 | 39.66952 | 4.18457 | 3051 ft | 231 kts | 12° |
| 2026-04-15 13:34 | 39.68489 | 4.18682 | 2910 ft | 216 kts | 359° |
| 2026-04-15 13:34 | 39.69960 | 4.18785 | 2694 ft | 208 kts | 359° |
| 2026-04-15 13:34 | 39.71354 | 4.18882 | 2524 ft | 197 kts | 358° |
| 2026-04-15 13:34 | 39.72709 | 4.19056 | 2357 ft | 189 kts | 4° |
| 2026-04-15 13:35 | 39.73978 | 4.19324 | 2166 ft | 181 kts | 5° |
| 2026-04-15 13:35 | 39.75186 | 4.19580 | 2048 ft | 168 kts | 4° |
| 2026-04-15 13:35 | 39.76294 | 4.19814 | 1991 ft | 153 kts | 4° |
| 2026-04-15 13:35 | 39.77293 | 4.20024 | 1973 ft | 144 kts | 2° |
| 2026-04-15 13:36 | 39.78451 | 4.20232 | 2005 ft | 185 kts | 1° |
| 2026-04-15 13:36 | 39.79648 | 4.20430 | 1845 ft | 161 kts | 5° |
| 2026-04-15 13:36 | 39.80705 | 4.20682 | 1504 ft | 147 kts | 3° |
| 2026-04-15 13:36 | 39.81671 | 4.20918 | 1239 ft | 129 kts | 2° |
| 2026-04-15 13:37 | 39.82499 | 4.21078 | 1002 ft | 121 kts | 1° |
| 2026-04-15 13:37 | 39.83367 | 4.21247 | 778 ft | 129 kts | 2° |
| 2026-04-15 13:37 | 39.84277 | 4.21456 | 581 ft | 134 kts | 3° |
| 2026-04-15 13:37 | 39.85176 | 4.21644 | 351 ft | 125 kts | 0° |
| 2026-04-15 13:38 | 39.85952 | 4.21794 | 301 ft | 95 kts | 7° |
| 2026-04-15 13:38 | 39.86386 | 4.21888 | 301 ft | 40 kts | 11° |
| 2026-04-15 13:38 | 39.86532 | 4.21920 | 304 ft | 11 kts | 12° |
| 2026-04-15 13:38 | 39.86565 | 4.21945 | 305 ft | 3 kts | 51° |
| 2026-04-15 13:39 | 39.86572 | 4.21983 | 302 ft | 6 kts | 95° |
| 2026-04-15 13:39 | 39.86569 | 4.22013 | 298 ft | 0 kts | 98° |
| 2026-04-15 13:40 | 39.86568 | 4.22021 | 302 ft | 3 kts | 98° |
| 2026-04-15 13:40 | 39.86562 | 4.22067 | 299 ft | 8 kts | 99° |
| 2026-04-15 13:40 | 39.86552 | 4.22153 | 296 ft | 11 kts | 98° |
| 2026-04-15 13:40 | 39.86540 | 4.22249 | 292 ft | 9 kts | 99° |
| 2026-04-15 13:41 | 39.86537 | 4.22301 | 288 ft | 6 kts | 82° |
| 2026-04-15 13:41 | 39.86568 | 4.22335 | 288 ft | 6 kts | 14° |
| 2026-04-15 13:41 | 39.86586 | 4.22362 | 288 ft | 2 kts | 91° |
| 2026-04-15 13:41 | 39.86581 | 4.22386 | 287 ft | 3 kts | 105° |
| 2026-04-15 13:42 | 39.86576 | 4.22419 | 286 ft | 2 kts | 99° |
| 2026-04-15 13:42 | 39.86575 | 4.22427 | 285 ft | 0 kts | 99° |